Terminal Aerodrome Forecast
Issued by NWS Cleveland, OH

Home | Current Version | Previous Version | Graphics & Text | Print | Product List | Glossary On
Versions: 1 2 3 4 5 6 7 8 9 10 11 12 13 14 15 16 17
000
FTUS41 KCLE 170100 AAA
TAFMFD
TAF AMD
KMFD 170145Z 1702/1724 16010KT P6SM BKN025 OVC040
      TEMPO 1702/1706 SCT025
     FM170600 19006KT P6SM SCT015 OVC025
     FM171600 31006KT P6SM SCT020=

USA.gov is the U.S. government's official web portal to all federal, state and local government web resources and services.